sensor_id;sensor_type;location;lat;lon;timestamp;temperature;humidity
24450;DHT22;13349;50.984;5.822;2024-01-15T00:00:56;1.10;99.90
24450;DHT22;13349;50.984;5.822;2024-01-15T00:03:25;1.10;99.90
24450;DHT22;13349;50.984;5.822;2024-01-15T00:05:52;1.00;99.90
24450;DHT22;13349;50.984;5.822;2024-01-15T00:08:19;1.00;99.90
24450;DHT22;13349;50.984;5.822;2024-01-15T00:10:46;1.00;99.90
24450;DHT22;13349;50.984;5.822;2024-01-15T00:13:13;1.00;99.90
24450;DHT22;13349;50.984;5.822;2024-01-15T00:15:40;1.00;99.90
24450;DHT22;13349;50.984;5.822;2024-01-15T00:18:07;1.00;99.90
24450;DHT22;13349;50.984;5.822;2024-01-15T00:20:35;1.00;99.90
24450;DHT22;13349;50.984;5.822;2024-01-15T00:23:02;1.00;99.90
24450;DHT22;13349;50.984;5.822;2024-01-15T00:25:29;1.00;99.90
24450;DHT22;13349;50.984;5.822;2024-01-15T00:27:57;1.00;99.90
24450;DHT22;13349;50.984;5.822;2024-01-15T00:30:24;1.00;99.90
24450;DHT22;13349;50.984;5.822;2024-01-15T00:32:51;1.10;99.90
24450;DHT22;13349;50.984;5.822;2024-01-15T00:35:17;1.10;99.90
24450;DHT22;13349;50.984;5.822;2024-01-15T00:37:46;1.10;99.90
24450;DHT22;13349;50.984;5.822;2024-01-15T00:40:13;1.10;99.90
24450;DHT22;13349;50.984;5.822;2024-01-15T00:42:40;1.00;99.90
24450;DHT22;13349;50.984;5.822;2024-01-15T00:45:07;1.00;99.90
24450;DHT22;13349;50.984;5.822;2024-01-15T00:47:35;1.00;99.90
24450;DHT22;13349;50.984;5.822;2024-01-15T00:50:02;0.90;99.90
24450;DHT22;13349;50.984;5.822;2024-01-15T00:52:29;0.90;99.90
24450;DHT22;13349;50.984;5.822;2024-01-15T00:54:57;0.90;99.90
24450;DHT22;13349;50.984;5.822;2024-01-15T00:57:24;0.90;99.90
24450;DHT22;13349;50.984;5.822;2024-01-15T00:59:51;0.90;99.90
24450;DHT22;13349;50.984;5.822;2024-01-15T01:02:18;1.00;99.90
24450;DHT22;13349;50.984;5.822;2024-01-15T01:04:45;0.90;99.90
24450;DHT22;13349;50.984;5.822;2024-01-15T01:07:12;1.00;99.90
24450;DHT22;13349;50.984;5.822;2024-01-15T01:09:39;1.00;99.90
24450;DHT22;13349;50.984;5.822;2024-01-15T01:12:07;1.00;99.90
24450;DHT22;13349;50.984;5.822;2024-01-15T01:14:34;1.00;99.90
24450;DHT22;13349;50.984;5.822;2024-01-15T01:17:01;1.00;99.90
24450;DHT22;13349;50.984;5.822;2024-01-15T01:19:28;1.00;99.90
24450;DHT22;13349;50.984;5.822;2024-01-15T01:21:56;1.00;99.90
24450;DHT22;13349;50.984;5.822;2024-01-15T01:24:23;1.00;99.90
24450;DHT22;13349;50.984;5.822;2024-01-15T01:26:50;1.00;99.90
24450;DHT22;13349;50.984;5.822;2024-01-15T01:29:18;1.00;99.90
24450;DHT22;13349;50.984;5.822;2024-01-15T01:31:45;0.90;99.90
24450;DHT22;13349;50.984;5.822;2024-01-15T01:34:13;0.90;99.90
24450;DHT22;13349;50.984;5.822;2024-01-15T01:36:40;1.00;99.90
24450;DHT22;13349;50.984;5.822;2024-01-15T01:39:07;0.90;99.90
24450;DHT22;13349;50.984;5.822;2024-01-15T01:41:34;0.80;99.90
24450;DHT22;13349;50.984;5.822;2024-01-15T01:44:02;0.80;99.90
24450;DHT22;13349;50.984;5.822;2024-01-15T01:46:30;0.80;99.90
24450;DHT22;13349;50.984;5.822;2024-01-15T01:48:58;0.80;99.90
24450;DHT22;13349;50.984;5.822;2024-01-15T01:51:30;0.80;99.90
24450;DHT22;13349;50.984;5.822;2024-01-15T01:53:57;0.80;99.90
24450;DHT22;13349;50.984;5.822;2024-01-15T01:56:24;0.80;99.90
24450;DHT22;13349;50.984;5.822;2024-01-15T01:58:52;0.80;99.90
24450;DHT22;13349;50.984;5.822;2024-01-15T02:01:19;0.70;99.90
24450;DHT22;13349;50.984;5.822;2024-01-15T02:03:47;0.70;99.90
24450;DHT22;13349;50.984;5.822;2024-01-15T02:06:15;0.80;99.90
24450;DHT22;13349;50.984;5.822;2024-01-15T02:08:42;0.80;99.90
24450;DHT22;13349;50.984;5.822;2024-01-15T02:11:10;0.80;99.90
24450;DHT22;13349;50.984;5.822;2024-01-15T02:13:38;0.80;99.90
24450;DHT22;13349;50.984;5.822;2024-01-15T02:16:05;0.70;99.90
24450;DHT22;13349;50.984;5.822;2024-01-15T02:18:39;0.80;99.90
24450;DHT22;13349;50.984;5.822;2024-01-15T02:21:08;0.80;99.90
24450;DHT22;13349;50.984;5.822;2024-01-15T02:23:36;0.70;99.90
24450;DHT22;13349;50.984;5.822;2024-01-15T02:26:03;0.70;99.90
24450;DHT22;13349;50.984;5.822;2024-01-15T02:28:31;0.80;99.90
24450;DHT22;13349;50.984;5.822;2024-01-15T02:30:59;0.70;99.90
24450;DHT22;13349;50.984;5.822;2024-01-15T02:33:26;0.80;99.90
24450;DHT22;13349;50.984;5.822;2024-01-15T02:35:53;0.90;99.90
24450;DHT22;13349;50.984;5.822;2024-01-15T02:38:20;0.90;99.90
24450;DHT22;13349;50.984;5.822;2024-01-15T02:40:49;0.90;99.90
24450;DHT22;13349;50.984;5.822;2024-01-15T02:43:16;0.90;99.90
24450;DHT22;13349;50.984;5.822;2024-01-15T02:45:44;0.90;99.90
24450;DHT22;13349;50.984;5.822;2024-01-15T02:48:11;0.80;99.90
24450;DHT22;13349;50.984;5.822;2024-01-15T02:50:38;0.80;99.90
24450;DHT22;13349;50.984;5.822;2024-01-15T02:53:05;0.80;99.90
24450;DHT22;13349;50.984;5.822;2024-01-15T02:55:32;0.80;99.90
24450;DHT22;13349;50.984;5.822;2024-01-15T02:58:01;0.80;99.90
24450;DHT22;13349;50.984;5.822;2024-01-15T03:00:28;0.80;99.90
24450;DHT22;13349;50.984;5.822;2024-01-15T03:02:54;0.90;99.90
24450;DHT22;13349;50.984;5.822;2024-01-15T03:05:21;0.80;99.90
24450;DHT22;13349;50.984;5.822;2024-01-15T03:07:49;0.90;99.90
24450;DHT22;13349;50.984;5.822;2024-01-15T03:10:16;0.80;99.90
24450;DHT22;13349;50.984;5.822;2024-01-15T03:12:43;0.80;99.90
24450;DHT22;13349;50.984;5.822;2024-01-15T03:15:11;0.80;99.90
24450;DHT22;13349;50.984;5.822;2024-01-15T03:17:38;0.80;99.90
24450;DHT22;13349;50.984;5.822;2024-01-15T03:20:06;0.80;99.90
24450;DHT22;13349;50.984;5.822;2024-01-15T03:22:33;0.80;99.90
24450;DHT22;13349;50.984;5.822;2024-01-15T03:25:00;0.90;99.90
24450;DHT22;13349;50.984;5.822;2024-01-15T03:27:27;0.90;99.90
24450;DHT22;13349;50.984;5.822;2024-01-15T03:29:54;0.90;99.90
24450;DHT22;13349;50.984;5.822;2024-01-15T03:32:22;1.00;99.90
24450;DHT22;13349;50.984;5.822;2024-01-15T03:34:49;0.90;99.90
24450;DHT22;13349;50.984;5.822;2024-01-15T03:37:18;1.00;99.90
24450;DHT22;13349;50.984;5.822;2024-01-15T03:39:45;1.00;99.90
24450;DHT22;13349;50.984;5.822;2024-01-15T03:42:12;1.00;99.90
24450;DHT22;13349;50.984;5.822;2024-01-15T03:44:39;1.00;99.90
24450;DHT22;13349;50.984;5.822;2024-01-15T03:47:06;1.00;99.90
24450;DHT22;13349;50.984;5.822;2024-01-15T03:49:35;0.90;99.90
24450;DHT22;13349;50.984;5.822;2024-01-15T03:52:02;1.00;99.90
24450;DHT22;13349;50.984;5.822;2024-01-15T03:54:29;1.00;99.90
24450;DHT22;13349;50.984;5.822;2024-01-15T03:56:56;1.00;99.90
24450;DHT22;13349;50.984;5.822;2024-01-15T03:59:23;1.00;99.90
24450;DHT22;13349;50.984;5.822;2024-01-15T04:01:50;1.00;99.90
24450;DHT22;13349;50.984;5.822;2024-01-15T04:04:17;0.90;99.90
24450;DHT22;13349;50.984;5.822;2024-01-15T04:06:46;1.00;99.90
24450;DHT22;13349;50.984;5.822;2024-01-15T04:09:13;1.00;99.90
24450;DHT22;13349;50.984;5.822;2024-01-15T04:11:40;1.10;99.90
24450;DHT22;13349;50.984;5.822;2024-01-15T04:14:07;1.10;99.90
24450;DHT22;13349;50.984;5.822;2024-01-15T04:16:34;1.10;99.90
24450;DHT22;13349;50.984;5.822;2024-01-15T04:19:01;1.10;99.90
24450;DHT22;13349;50.984;5.822;2024-01-15T04:21:28;1.10;99.90
24450;DHT22;13349;50.984;5.822;2024-01-15T04:23:57;1.10;99.90
24450;DHT22;13349;50.984;5.822;2024-01-15T04:26:24;1.00;99.90
24450;DHT22;13349;50.984;5.822;2024-01-15T04:28:51;1.00;99.90
24450;DHT22;13349;50.984;5.822;2024-01-15T04:31:21;0.90;99.90
24450;DHT22;13349;50.984;5.822;2024-01-15T04:33:48;1.00;99.90
24450;DHT22;13349;50.984;5.822;2024-01-15T04:36:15;0.90;99.90
24450;DHT22;13349;50.984;5.822;2024-01-15T04:38:42;0.90;99.90
24450;DHT22;13349;50.984;5.822;2024-01-15T04:41:12;0.90;99.90
24450;DHT22;13349;50.984;5.822;2024-01-15T04:43:39;0.90;99.90
24450;DHT22;13349;50.984;5.822;2024-01-15T04:46:06;0.90;99.90
24450;DHT22;13349;50.984;5.822;2024-01-15T04:48:33;0.90;99.90
24450;DHT22;13349;50.984;5.822;2024-01-15T04:51:00;0.80;99.90
24450;DHT22;13349;50.984;5.822;2024-01-15T04:53:27;0.90;99.90
24450;DHT22;13349;50.984;5.822;2024-01-15T04:55:54;0.90;99.90
24450;DHT22;13349;50.984;5.822;2024-01-15T04:58:23;0.90;99.90
24450;DHT22;13349;50.984;5.822;2024-01-15T05:00:52;1.00;99.90
24450;DHT22;13349;50.984;5.822;2024-01-15T05:03:20;0.90;99.90
24450;DHT22;13349;50.984;5.822;2024-01-15T05:05:47;1.00;99.90
24450;DHT22;13349;50.984;5.822;2024-01-15T05:08:14;1.00;99.90
24450;DHT22;13349;50.984;5.822;2024-01-15T05:10:41;1.00;99.90
24450;DHT22;13349;50.984;5.822;2024-01-15T05:13:08;1.00;99.90
24450;DHT22;13349;50.984;5.822;2024-01-15T05:15:36;0.90;99.90
24450;DHT22;13349;50.984;5.822;2024-01-15T05:18:03;0.90;99.90
24450;DHT22;13349;50.984;5.822;2024-01-15T05:20:30;0.90;99.90
24450;DHT22;13349;50.984;5.822;2024-01-15T05:22:57;0.90;99.90
24450;DHT22;13349;50.984;5.822;2024-01-15T05:25:24;0.90;99.90
24450;DHT22;13349;50.984;5.822;2024-01-15T05:27:51;0.90;99.90
24450;DHT22;13349;50.984;5.822;2024-01-15T05:30:18;0.90;99.90
24450;DHT22;13349;50.984;5.822;2024-01-15T05:32:47;0.90;99.90
24450;DHT22;13349;50.984;5.822;2024-01-15T05:35:13;0.90;99.90
24450;DHT22;13349;50.984;5.822;2024-01-15T05:37:42;0.90;99.90
24450;DHT22;13349;50.984;5.822;2024-01-15T05:40:10;0.90;99.90
24450;DHT22;13349;50.984;5.822;2024-01-15T05:42:38;0.90;99.90
24450;DHT22;13349;50.984;5.822;2024-01-15T05:45:05;1.00;99.90
24450;DHT22;13349;50.984;5.822;2024-01-15T05:47:32;1.00;99.90
24450;DHT22;13349;50.984;5.822;2024-01-15T05:50:01;1.00;99.90
24450;DHT22;13349;50.984;5.822;2024-01-15T05:52:28;1.00;99.90
24450;DHT22;13349;50.984;5.822;2024-01-15T05:54:55;1.00;99.90
24450;DHT22;13349;50.984;5.822;2024-01-15T05:57:22;1.10;99.90
24450;DHT22;13349;50.984;5.822;2024-01-15T05:59:49;1.00;99.90
24450;DHT22;13349;50.984;5.822;2024-01-15T06:02:16;1.10;99.90
24450;DHT22;13349;50.984;5.822;2024-01-15T06:04:43;1.10;99.90
24450;DHT22;13349;50.984;5.822;2024-01-15T06:07:11;1.10;99.90
24450;DHT22;13349;50.984;5.822;2024-01-15T06:09:38;1.10;99.90
24450;DHT22;13349;50.984;5.822;2024-01-15T06:12:06;1.10;99.90
24450;DHT22;13349;50.984;5.822;2024-01-15T06:14:33;1.00;99.90
24450;DHT22;13349;50.984;5.822;2024-01-15T06:17:00;1.00;99.90
24450;DHT22;13349;50.984;5.822;2024-01-15T06:19:28;1.10;99.90
24450;DHT22;13349;50.984;5.822;2024-01-15T06:21:55;1.10;99.90
24450;DHT22;13349;50.984;5.822;2024-01-15T06:24:23;1.10;99.90
24450;DHT22;13349;50.984;5.822;2024-01-15T06:26:50;1.00;99.90
24450;DHT22;13349;50.984;5.822;2024-01-15T06:29:17;1.00;99.90
24450;DHT22;13349;50.984;5.822;2024-01-15T06:31:44;1.10;99.90
24450;DHT22;13349;50.984;5.822;2024-01-15T06:34:11;1.10;99.90
24450;DHT22;13349;50.984;5.822;2024-01-15T06:36:38;1.10;99.90
24450;DHT22;13349;50.984;5.822;2024-01-15T06:39:05;1.10;99.90
24450;DHT22;13349;50.984;5.822;2024-01-15T06:41:33;1.10;99.90
24450;DHT22;13349;50.984;5.822;2024-01-15T06:44:00;1.10;99.90
24450;DHT22;13349;50.984;5.822;2024-01-15T06:46:27;1.10;99.90
24450;DHT22;13349;50.984;5.822;2024-01-15T06:48:54;1.10;99.90
24450;DHT22;13349;50.984;5.822;2024-01-15T06:51:21;1.00;99.90
24450;DHT22;13349;50.984;5.822;2024-01-15T06:53:48;1.00;99.90
24450;DHT22;13349;50.984;5.822;2024-01-15T06:56:15;1.00;99.90
24450;DHT22;13349;50.984;5.822;2024-01-15T06:58:43;1.00;99.90
24450;DHT22;13349;50.984;5.822;2024-01-15T07:01:10;1.10;99.90
24450;DHT22;13349;50.984;5.822;2024-01-15T07:03:37;1.10;99.90
24450;DHT22;13349;50.984;5.822;2024-01-15T07:06:05;1.10;99.90
24450;DHT22;13349;50.984;5.822;2024-01-15T07:08:32;1.00;99.90
24450;DHT22;13349;50.984;5.822;2024-01-15T07:10:59;1.10;99.90
24450;DHT22;13349;50.984;5.822;2024-01-15T07:13:26;1.00;99.90
24450;DHT22;13349;50.984;5.822;2024-01-15T07:15:55;1.00;99.90
24450;DHT22;13349;50.984;5.822;2024-01-15T07:18:23;1.00;99.90
24450;DHT22;13349;50.984;5.822;2024-01-15T07:20:50;1.10;99.90
24450;DHT22;13349;50.984;5.822;2024-01-15T07:23:17;1.00;99.90
24450;DHT22;13349;50.984;5.822;2024-01-15T07:25:44;1.00;99.90
24450;DHT22;13349;50.984;5.822;2024-01-15T07:28:11;1.00;99.90
24450;DHT22;13349;50.984;5.822;2024-01-15T07:30:38;1.00;99.90
24450;DHT22;13349;50.984;5.822;2024-01-15T07:33:06;1.10;99.90
24450;DHT22;13349;50.984;5.822;2024-01-15T07:35:33;1.10;99.90
24450;DHT22;13349;50.984;5.822;2024-01-15T07:38:00;1.00;99.90
24450;DHT22;13349;50.984;5.822;2024-01-15T07:40:27;1.10;99.90
24450;DHT22;13349;50.984;5.822;2024-01-15T07:42:54;1.20;99.90
24450;DHT22;13349;50.984;5.822;2024-01-15T07:45:21;1.10;99.90
24450;DHT22;13349;50.984;5.822;2024-01-15T07:47:47;1.10;99.90
24450;DHT22;13349;50.984;5.822;2024-01-15T07:50:16;1.00;99.90
24450;DHT22;13349;50.984;5.822;2024-01-15T07:52:43;1.10;99.90
24450;DHT22;13349;50.984;5.822;2024-01-15T07:55:10;1.10;99.90
24450;DHT22;13349;50.984;5.822;2024-01-15T07:57:37;1.10;99.90
24450;DHT22;13349;50.984;5.822;2024-01-15T08:00:04;1.00;99.90
24450;DHT22;13349;50.984;5.822;2024-01-15T08:02:31;1.00;99.90
24450;DHT22;13349;50.984;5.822;2024-01-15T08:04:58;1.10;99.90
24450;DHT22;13349;50.984;5.822;2024-01-15T08:07:27;1.00;99.90
24450;DHT22;13349;50.984;5.822;2024-01-15T08:09:54;1.10;99.90
24450;DHT22;13349;50.984;5.822;2024-01-15T08:12:21;1.10;99.90
24450;DHT22;13349;50.984;5.822;2024-01-15T08:14:48;1.10;99.90
24450;DHT22;13349;50.984;5.822;2024-01-15T08:17:15;1.10;99.90
24450;DHT22;13349;50.984;5.822;2024-01-15T08:19:42;1.10;99.90
24450;DHT22;13349;50.984;5.822;2024-01-15T08:22:09;1.00;99.90
24450;DHT22;13349;50.984;5.822;2024-01-15T08:24:38;1.00;99.90
24450;DHT22;13349;50.984;5.822;2024-01-15T08:27:04;1.00;99.90
24450;DHT22;13349;50.984;5.822;2024-01-15T08:29:31;1.10;99.90
24450;DHT22;13349;50.984;5.822;2024-01-15T08:32:00;1.10;99.90
24450;DHT22;13349;50.984;5.822;2024-01-15T08:34:27;1.20;99.90
24450;DHT22;13349;50.984;5.822;2024-01-15T08:36:54;1.20;99.90
24450;DHT22;13349;50.984;5.822;2024-01-15T08:39:21;1.20;99.90
24450;DHT22;13349;50.984;5.822;2024-01-15T08:41:49;1.30;99.90
24450;DHT22;13349;50.984;5.822;2024-01-15T08:44:16;1.30;99.90
24450;DHT22;13349;50.984;5.822;2024-01-15T08:46:43;1.30;99.90
24450;DHT22;13349;50.984;5.822;2024-01-15T08:49:10;1.30;99.90
24450;DHT22;13349;50.984;5.822;2024-01-15T08:51:37;1.30;99.90
24450;DHT22;13349;50.984;5.822;2024-01-15T08:54:04;1.40;99.90
24450;DHT22;13349;50.984;5.822;2024-01-15T08:56:33;1.40;99.90
24450;DHT22;13349;50.984;5.822;2024-01-15T08:59:02;1.30;99.90
24450;DHT22;13349;50.984;5.822;2024-01-15T09:01:29;1.30;99.90
24450;DHT22;13349;50.984;5.822;2024-01-15T09:03:56;1.20;99.90
24450;DHT22;13349;50.984;5.822;2024-01-15T09:06:23;1.20;99.90
24450;DHT22;13349;50.984;5.822;2024-01-15T09:08:50;1.20;99.90
24450;DHT22;13349;50.984;5.822;2024-01-15T09:11:17;1.10;99.90
24450;DHT22;13349;50.984;5.822;2024-01-15T09:13:44;1.10;99.90
24450;DHT22;13349;50.984;5.822;2024-01-15T09:16:12;1.10;99.90
24450;DHT22;13349;50.984;5.822;2024-01-15T09:18:39;1.00;99.90
24450;DHT22;13349;50.984;5.822;2024-01-15T09:21:06;0.90;99.90
24450;DHT22;13349;50.984;5.822;2024-01-15T09:23:33;1.00;99.90
24450;DHT22;13349;50.984;5.822;2024-01-15T09:26:01;0.90;99.90
24450;DHT22;13349;50.984;5.822;2024-01-15T09:28:28;0.90;99.90
24450;DHT22;13349;50.984;5.822;2024-01-15T09:30:55;0.90;99.90
24450;DHT22;13349;50.984;5.822;2024-01-15T09:33:23;0.80;99.90
24450;DHT22;13349;50.984;5.822;2024-01-15T09:35:50;0.80;99.90
24450;DHT22;13349;50.984;5.822;2024-01-15T09:38:17;0.80;99.90
24450;DHT22;13349;50.984;5.822;2024-01-15T09:40:45;0.90;99.90
24450;DHT22;13349;50.984;5.822;2024-01-15T09:43:12;0.80;99.90
24450;DHT22;13349;50.984;5.822;2024-01-15T09:45:41;1.00;99.90
24450;DHT22;13349;50.984;5.822;2024-01-15T09:48:08;0.90;99.90
24450;DHT22;13349;50.984;5.822;2024-01-15T09:50:37;0.90;99.90
24450;DHT22;13349;50.984;5.822;2024-01-15T09:53:04;0.90;99.90
24450;DHT22;13349;50.984;5.822;2024-01-15T09:55:32;1.00;99.90
24450;DHT22;13349;50.984;5.822;2024-01-15T09:58:00;1.00;99.90
24450;DHT22;13349;50.984;5.822;2024-01-15T10:00:27;1.00;99.90
24450;DHT22;13349;50.984;5.822;2024-01-15T10:02:55;1.00;99.90
24450;DHT22;13349;50.984;5.822;2024-01-15T10:05:22;1.00;99.90
24450;DHT22;13349;50.984;5.822;2024-01-15T10:07:51;1.00;99.90
24450;DHT22;13349;50.984;5.822;2024-01-15T10:10:18;1.10;99.90
24450;DHT22;13349;50.984;5.822;2024-01-15T10:12:45;1.10;99.90
24450;DHT22;13349;50.984;5.822;2024-01-15T10:15:12;1.20;99.90
24450;DHT22;13349;50.984;5.822;2024-01-15T10:17:39;1.20;99.90
24450;DHT22;13349;50.984;5.822;2024-01-15T10:20:07;1.20;99.90
24450;DHT22;13349;50.984;5.822;2024-01-15T10:22:35;1.20;99.90
24450;DHT22;13349;50.984;5.822;2024-01-15T10:25:05;1.20;99.90
24450;DHT22;13349;50.984;5.822;2024-01-15T10:27:32;1.30;99.90
24450;DHT22;13349;50.984;5.822;2024-01-15T10:29:59;1.40;99.90
24450;DHT22;13349;50.984;5.822;2024-01-15T10:32:26;1.40;99.90
24450;DHT22;13349;50.984;5.822;2024-01-15T10:34:54;1.40;99.90
24450;DHT22;13349;50.984;5.822;2024-01-15T10:37:21;1.40;99.90
24450;DHT22;13349;50.984;5.822;2024-01-15T10:39:50;1.50;99.90
24450;DHT22;13349;50.984;5.822;2024-01-15T10:42:19;1.60;99.90
24450;DHT22;13349;50.984;5.822;2024-01-15T10:44:46;1.80;99.90
24450;DHT22;13349;50.984;5.822;2024-01-15T10:47:13;1.90;99.90
24450;DHT22;13349;50.984;5.822;2024-01-15T10:49:40;2.10;99.90
24450;DHT22;13349;50.984;5.822;2024-01-15T10:52:07;2.10;99.90
24450;DHT22;13349;50.984;5.822;2024-01-15T10:54:34;2.00;99.90
24450;DHT22;13349;50.984;5.822;2024-01-15T10:57:02;2.00;99.90
24450;DHT22;13349;50.984;5.822;2024-01-15T10:59:31;2.00;99.90
24450;DHT22;13349;50.984;5.822;2024-01-15T11:01:58;2.40;99.90
24450;DHT22;13349;50.984;5.822;2024-01-15T11:04:25;3.00;99.90
24450;DHT22;13349;50.984;5.822;2024-01-15T11:06:54;3.20;99.90
24450;DHT22;13349;50.984;5.822;2024-01-15T11:09:22;3.30;99.90
24450;DHT22;13349;50.984;5.822;2024-01-15T11:11:51;3.10;99.90
24450;DHT22;13349;50.984;5.822;2024-01-15T11:14:38;3.10;99.90
24450;DHT22;13349;50.984;5.822;2024-01-15T11:17:05;3.40;99.90
24450;DHT22;13349;50.984;5.822;2024-01-15T11:19:36;3.40;99.90
24450;DHT22;13349;50.984;5.822;2024-01-15T11:22:03;3.80;99.90
24450;DHT22;13349;50.984;5.822;2024-01-15T11:24:38;3.80;99.90
24450;DHT22;13349;50.984;5.822;2024-01-15T11:27:05;4.10;99.90
24450;DHT22;13349;50.984;5.822;2024-01-15T11:29:33;4.60;99.90
24450;DHT22;13349;50.984;5.822;2024-01-15T11:32:02;5.00;99.90
24450;DHT22;13349;50.984;5.822;2024-01-15T11:37:15;4.20;99.90
24450;DHT22;13349;50.984;5.822;2024-01-15T11:39:42;3.70;99.90
24450;DHT22;13349;50.984;5.822;2024-01-15T11:42:09;3.30;99.90
24450;DHT22;13349;50.984;5.822;2024-01-15T11:44:37;3.20;99.90
24450;DHT22;13349;50.984;5.822;2024-01-15T11:47:06;3.00;99.90
24450;DHT22;13349;50.984;5.822;2024-01-15T11:49:39;2.80;99.90
24450;DHT22;13349;50.984;5.822;2024-01-15T11:52:11;2.70;99.90
24450;DHT22;13349;50.984;5.822;2024-01-15T11:54:38;2.60;99.90
24450;DHT22;13349;50.984;5.822;2024-01-15T11:57:08;2.50;99.90
24450;DHT22;13349;50.984;5.822;2024-01-15T11:59:36;2.40;99.90
24450;DHT22;13349;50.984;5.822;2024-01-15T12:02:03;2.30;99.90
24450;DHT22;13349;50.984;5.822;2024-01-15T12:04:31;2.00;99.90
24450;DHT22;13349;50.984;5.822;2024-01-15T12:06:58;1.90;99.90
24450;DHT22;13349;50.984;5.822;2024-01-15T12:09:25;1.60;99.90
24450;DHT22;13349;50.984;5.822;2024-01-15T12:11:54;1.50;99.90
24450;DHT22;13349;50.984;5.822;2024-01-15T12:14:25;1.40;99.90
24450;DHT22;13349;50.984;5.822;2024-01-15T12:16:52;1.50;99.90
24450;DHT22;13349;50.984;5.822;2024-01-15T12:19:20;1.60;99.90
24450;DHT22;13349;50.984;5.822;2024-01-15T12:21:51;1.60;99.90
24450;DHT22;13349;50.984;5.822;2024-01-15T12:24:18;1.60;99.90
24450;DHT22;13349;50.984;5.822;2024-01-15T12:26:45;1.50;99.90
24450;DHT22;13349;50.984;5.822;2024-01-15T12:29:13;1.40;99.90
24450;DHT22;13349;50.984;5.822;2024-01-15T12:31:40;1.30;99.90
24450;DHT22;13349;50.984;5.822;2024-01-15T12:34:07;1.40;99.90
24450;DHT22;13349;50.984;5.822;2024-01-15T12:36:34;1.50;99.90
24450;DHT22;13349;50.984;5.822;2024-01-15T12:39:02;1.60;99.90
24450;DHT22;13349;50.984;5.822;2024-01-15T12:41:29;1.80;99.90
24450;DHT22;13349;50.984;5.822;2024-01-15T12:43:56;1.90;99.90
24450;DHT22;13349;50.984;5.822;2024-01-15T12:46:23;1.80;99.90
24450;DHT22;13349;50.984;5.822;2024-01-15T12:48:50;1.80;99.90
24450;DHT22;13349;50.984;5.822;2024-01-15T12:51:17;1.70;99.90
24450;DHT22;13349;50.984;5.822;2024-01-15T12:53:44;1.80;99.90
24450;DHT22;13349;50.984;5.822;2024-01-15T12:56:12;1.90;99.90
24450;DHT22;13349;50.984;5.822;2024-01-15T12:58:39;2.10;99.90
24450;DHT22;13349;50.984;5.822;2024-01-15T13:01:06;2.00;99.90
24450;DHT22;13349;50.984;5.822;2024-01-15T13:03:33;1.90;99.90
24450;DHT22;13349;50.984;5.822;2024-01-15T13:06:00;1.80;99.90
24450;DHT22;13349;50.984;5.822;2024-01-15T13:08:27;1.70;99.90
24450;DHT22;13349;50.984;5.822;2024-01-15T13:10:55;1.60;99.90
24450;DHT22;13349;50.984;5.822;2024-01-15T13:13:24;1.70;99.90
24450;DHT22;13349;50.984;5.822;2024-01-15T13:15:51;1.60;99.90
24450;DHT22;13349;50.984;5.822;2024-01-15T13:18:18;1.60;99.90
24450;DHT22;13349;50.984;5.822;2024-01-15T13:20:45;1.50;99.90
24450;DHT22;13349;50.984;5.822;2024-01-15T13:23:12;1.60;99.90
24450;DHT22;13349;50.984;5.822;2024-01-15T13:25:39;1.70;99.90
24450;DHT22;13349;50.984;5.822;2024-01-15T13:28:06;1.70;99.90
24450;DHT22;13349;50.984;5.822;2024-01-15T13:30:34;1.80;99.90
24450;DHT22;13349;50.984;5.822;2024-01-15T13:33:02;1.80;99.90
24450;DHT22;13349;50.984;5.822;2024-01-15T13:35:30;1.80;99.90
24450;DHT22;13349;50.984;5.822;2024-01-15T13:37:57;1.90;99.90
24450;DHT22;13349;50.984;5.822;2024-01-15T13:40:24;1.80;99.90
24450;DHT22;13349;50.984;5.822;2024-01-15T13:42:51;1.90;99.90
24450;DHT22;13349;50.984;5.822;2024-01-15T13:45:20;1.80;99.90
24450;DHT22;13349;50.984;5.822;2024-01-15T13:47:50;1.90;99.90
24450;DHT22;13349;50.984;5.822;2024-01-15T13:50:17;1.90;99.90
24450;DHT22;13349;50.984;5.822;2024-01-15T13:52:45;1.80;99.90
24450;DHT22;13349;50.984;5.822;2024-01-15T13:55:12;1.80;99.90
24450;DHT22;13349;50.984;5.822;2024-01-15T13:57:39;1.80;99.90
24450;DHT22;13349;50.984;5.822;2024-01-15T14:00:07;1.90;99.90
24450;DHT22;13349;50.984;5.822;2024-01-15T14:02:36;1.90;99.90
24450;DHT22;13349;50.984;5.822;2024-01-15T14:05:05;1.90;99.90
24450;DHT22;13349;50.984;5.822;2024-01-15T14:07:33;1.80;99.90
24450;DHT22;13349;50.984;5.822;2024-01-15T14:10:00;1.80;99.90
24450;DHT22;13349;50.984;5.822;2024-01-15T14:12:27;1.80;99.90
24450;DHT22;13349;50.984;5.822;2024-01-15T14:14:53;1.80;99.90
24450;DHT22;13349;50.984;5.822;2024-01-15T14:17:21;1.90;99.90
24450;DHT22;13349;50.984;5.822;2024-01-15T14:19:47;2.00;99.90
24450;DHT22;13349;50.984;5.822;2024-01-15T14:22:16;2.00;99.90
24450;DHT22;13349;50.984;5.822;2024-01-15T14:24:43;2.10;99.90
24450;DHT22;13349;50.984;5.822;2024-01-15T14:27:10;2.10;99.90
24450;DHT22;13349;50.984;5.822;2024-01-15T14:29:37;2.20;99.90
24450;DHT22;13349;50.984;5.822;2024-01-15T14:32:04;2.30;99.90
24450;DHT22;13349;50.984;5.822;2024-01-15T14:34:31;2.30;99.90
24450;DHT22;13349;50.984;5.822;2024-01-15T14:36:58;2.40;99.90
24450;DHT22;13349;50.984;5.822;2024-01-15T14:39:26;2.40;99.90
24450;DHT22;13349;50.984;5.822;2024-01-15T14:41:53;2.40;99.90
24450;DHT22;13349;50.984;5.822;2024-01-15T14:44:20;2.30;99.90
24450;DHT22;13349;50.984;5.822;2024-01-15T14:46:50;2.20;99.90
24450;DHT22;13349;50.984;5.822;2024-01-15T14:49:17;2.10;99.90
24450;DHT22;13349;50.984;5.822;2024-01-15T14:51:44;2.10;99.90
24450;DHT22;13349;50.984;5.822;2024-01-15T14:54:11;2.20;99.90
24450;DHT22;13349;50.984;5.822;2024-01-15T14:56:39;2.20;99.90
24450;DHT22;13349;50.984;5.822;2024-01-15T14:59:08;2.20;99.90
24450;DHT22;13349;50.984;5.822;2024-01-15T15:01:35;2.20;99.90
24450;DHT22;13349;50.984;5.822;2024-01-15T15:04:02;2.10;99.90
24450;DHT22;13349;50.984;5.822;2024-01-15T15:06:29;2.00;99.90
24450;DHT22;13349;50.984;5.822;2024-01-15T15:08:56;2.00;99.90
24450;DHT22;13349;50.984;5.822;2024-01-15T15:11:25;1.90;99.90
24450;DHT22;13349;50.984;5.822;2024-01-15T15:13:53;1.90;99.90
24450;DHT22;13349;50.984;5.822;2024-01-15T15:16:20;1.90;99.90
24450;DHT22;13349;50.984;5.822;2024-01-15T15:18:47;1.90;99.90
24450;DHT22;13349;50.984;5.822;2024-01-15T15:21:14;1.80;99.90
24450;DHT22;13349;50.984;5.822;2024-01-15T15:23:41;1.80;99.90
24450;DHT22;13349;50.984;5.822;2024-01-15T15:26:08;1.80;99.90
24450;DHT22;13349;50.984;5.822;2024-01-15T15:28:35;1.70;99.90
24450;DHT22;13349;50.984;5.822;2024-01-15T15:31:03;1.70;99.90
24450;DHT22;13349;50.984;5.822;2024-01-15T15:33:33;1.70;99.90
24450;DHT22;13349;50.984;5.822;2024-01-15T15:36:00;1.70;99.90
24450;DHT22;13349;50.984;5.822;2024-01-15T15:38:30;1.70;99.90
24450;DHT22;13349;50.984;5.822;2024-01-15T15:40:57;1.70;99.90
24450;DHT22;13349;50.984;5.822;2024-01-15T15:43:25;1.60;99.90
24450;DHT22;13349;50.984;5.822;2024-01-15T15:45:52;1.60;99.90
24450;DHT22;13349;50.984;5.822;2024-01-15T15:48:20;1.50;99.90